sensor_id;sensor_type;location;lat;lon;timestamp;pressure;altitude;pressure_sealevel;temperature;humidity
11415;BME280;5763;42.714;23.244;2023-03-31T00:00:25;94531.59;;;11.85;45.24
11415;BME280;5763;42.714;23.244;2023-03-31T00:02:52;94531.28;;;11.74;46.29
11415;BME280;5763;42.714;23.244;2023-03-31T00:05:20;94516.50;;;11.81;46.62
11415;BME280;5763;42.714;23.244;2023-03-31T00:07:52;94523.66;;;11.87;46.65
11415;BME280;5763;42.714;23.244;2023-03-31T00:10:27;94527.28;;;11.84;46.68
11415;BME280;5763;42.714;23.244;2023-03-31T00:12:54;94520.28;;;11.83;46.07
11415;BME280;5763;42.714;23.244;2023-03-31T00:15:20;94522.75;;;11.81;46.52
11415;BME280;5763;42.714;23.244;2023-03-31T00:17:48;94521.97;;;11.81;45.60
11415;BME280;5763;42.714;23.244;2023-03-31T00:20:14;94520.63;;;11.85;45.54
11415;BME280;5763;42.714;23.244;2023-03-31T00:22:42;94520.72;;;11.91;45.81
11415;BME280;5763;42.714;23.244;2023-03-31T00:25:11;94522.41;;;11.97;45.70
11415;BME280;5763;42.714;23.244;2023-03-31T00:27:41;94514.75;;;12.01;45.89
11415;BME280;5763;42.714;23.244;2023-03-31T00:30:09;94523.88;;;12.07;45.67
11415;BME280;5763;42.714;23.244;2023-03-31T00:32:36;94529.06;;;12.05;46.74
11415;BME280;5763;42.714;23.244;2023-03-31T00:35:04;94514.28;;;12.03;45.87
11415;BME280;5763;42.714;23.244;2023-03-31T00:37:31;94514.28;;;12.03;45.87
11415;BME280;5763;42.714;23.244;2023-03-31T00:39:58;94505.75;;;12.01;43.97
11415;BME280;5763;42.714;23.244;2023-03-31T00:42:26;94503.38;;;12.26;39.73
11415;BME280;5763;42.714;23.244;2023-03-31T00:45:24;94494.91;;;12.39;40.49
11415;BME280;5763;42.714;23.244;2023-03-31T00:47:53;94505.09;;;12.47;38.98
11415;BME280;5763;42.714;23.244;2023-03-31T00:50:22;94498.91;;;12.61;38.81
11415;BME280;5763;42.714;23.244;2023-03-31T00:52:54;94493.53;;;12.67;39.90
11415;BME280;5763;42.714;23.244;2023-03-31T00:55:25;94490.59;;;12.70;40.57
11415;BME280;5763;42.714;23.244;2023-03-31T00:57:54;94484.53;;;12.66;40.58
11415;BME280;5763;42.714;23.244;2023-03-31T01:00:23;94451.41;;;12.46;42.05
11415;BME280;5763;42.714;23.244;2023-03-31T01:02:53;94478.53;;;12.53;44.00
11415;BME280;5763;42.714;23.244;2023-03-31T01:05:22;94489.28;;;12.42;44.17
11415;BME280;5763;42.714;23.244;2023-03-31T01:07:51;94486.22;;;12.40;44.20
11415;BME280;5763;42.714;23.244;2023-03-31T01:10:19;94479.91;;;12.25;44.77
11415;BME280;5763;42.714;23.244;2023-03-31T01:12:49;94474.41;;;12.25;45.03
11415;BME280;5763;42.714;23.244;2023-03-31T01:15:18;94483.63;;;12.13;45.80
11415;BME280;5763;42.714;23.244;2023-03-31T01:17:46;94484.50;;;12.19;44.99
11415;BME280;5763;42.714;23.244;2023-03-31T01:20:19;94478.97;;;12.28;44.87
11415;BME280;5763;42.714;23.244;2023-03-31T01:23:17;94454.28;;;11.96;44.86
11415;BME280;5763;42.714;23.244;2023-03-31T01:28:53;94487.66;;;12.27;45.31
11415;BME280;5763;42.714;23.244;2023-03-31T01:31:59;94452.41;;;12.11;43.69
11415;BME280;5763;42.714;23.244;2023-03-31T01:34:59;94447.69;;;12.11;44.89
11415;BME280;5763;42.714;23.244;2023-03-31T01:41:00;94501.44;;;12.41;42.95
11415;BME280;5763;42.714;23.244;2023-03-31T01:43:36;94492.56;;;12.46;41.12
11415;BME280;5763;42.714;23.244;2023-03-31T01:46:09;94497.31;;;12.46;41.36
11415;BME280;5763;42.714;23.244;2023-03-31T01:48:45;94501.41;;;12.50;40.98
11415;BME280;5763;42.714;23.244;2023-03-31T01:51:17;94499.66;;;12.62;40.17
11415;BME280;5763;42.714;23.244;2023-03-31T01:53:49;94494.81;;;12.57;40.04
11415;BME280;5763;42.714;23.244;2023-03-31T01:56:21;94510.47;;;12.65;39.26
11415;BME280;5763;42.714;23.244;2023-03-31T01:58:53;94525.44;;;12.64;39.35
11415;BME280;5763;42.714;23.244;2023-03-31T02:01:24;94519.88;;;12.73;39.47
11415;BME280;5763;42.714;23.244;2023-03-31T02:03:57;94510.59;;;12.71;39.28
11415;BME280;5763;42.714;23.244;2023-03-31T02:06:30;94513.63;;;12.73;38.67
11415;BME280;5763;42.714;23.244;2023-03-31T02:09:02;94532.31;;;12.83;39.12
11415;BME280;5763;42.714;23.244;2023-03-31T02:11:32;94520.63;;;12.74;39.97
11415;BME280;5763;42.714;23.244;2023-03-31T02:14:00;94522.91;;;12.75;41.19
11415;BME280;5763;42.714;23.244;2023-03-31T02:16:32;94545.50;;;12.70;41.74
11415;BME280;5763;42.714;23.244;2023-03-31T02:19:03;94552.00;;;12.58;41.37
11415;BME280;5763;42.714;23.244;2023-03-31T02:21:31;94559.88;;;12.65;43.05
11415;BME280;5763;42.714;23.244;2023-03-31T02:23:59;94564.31;;;12.63;41.15
11415;BME280;5763;42.714;23.244;2023-03-31T02:26:32;94569.97;;;12.59;42.53
11415;BME280;5763;42.714;23.244;2023-03-31T02:29:01;94568.47;;;12.58;44.02
11415;BME280;5763;42.714;23.244;2023-03-31T02:31:33;94578.25;;;12.50;43.94
11415;BME280;5763;42.714;23.244;2023-03-31T02:34:02;94572.78;;;12.41;45.63
11415;BME280;5763;42.714;23.244;2023-03-31T02:36:29;94575.53;;;12.41;46.35
11415;BME280;5763;42.714;23.244;2023-03-31T02:38:59;94589.78;;;12.31;48.73
11415;BME280;5763;42.714;23.244;2023-03-31T02:41:28;94570.59;;;12.22;50.67
11415;BME280;5763;42.714;23.244;2023-03-31T02:43:56;94579.78;;;12.19;52.91
11415;BME280;5763;42.714;23.244;2023-03-31T02:46:24;94574.13;;;12.13;54.24
11415;BME280;5763;42.714;23.244;2023-03-31T02:48:53;94570.69;;;11.95;53.70
11415;BME280;5763;42.714;23.244;2023-03-31T02:54:47;94552.28;;;11.86;54.02
11415;BME280;5763;42.714;23.244;2023-03-31T03:00:20;94538.63;;;11.59;54.63
11415;BME280;5763;42.714;23.244;2023-03-31T03:02:58;94539.53;;;11.56;55.29
11415;BME280;5763;42.714;23.244;2023-03-31T03:05:34;94533.47;;;11.61;55.33
11415;BME280;5763;42.714;23.244;2023-03-31T03:08:10;94524.91;;;11.68;55.80
11415;BME280;5763;42.714;23.244;2023-03-31T03:10:51;94520.81;;;11.73;56.05
11415;BME280;5763;42.714;23.244;2023-03-31T03:13:29;94507.97;;;11.79;55.91
11415;BME280;5763;42.714;23.244;2023-03-31T03:16:02;94506.75;;;11.80;56.33
11415;BME280;5763;42.714;23.244;2023-03-31T03:18:31;94505.06;;;11.91;56.04
11415;BME280;5763;42.714;23.244;2023-03-31T03:20:58;94510.09;;;11.84;56.71
11415;BME280;5763;42.714;23.244;2023-03-31T03:23:24;94514.69;;;11.78;57.34
11415;BME280;5763;42.714;23.244;2023-03-31T03:25:51;94498.06;;;11.81;57.34
11415;BME280;5763;42.714;23.244;2023-03-31T03:28:18;94503.41;;;11.76;56.91
11415;BME280;5763;42.714;23.244;2023-03-31T03:30:45;94499.75;;;11.79;57.06
11415;BME280;5763;42.714;23.244;2023-03-31T03:33:13;94504.63;;;11.75;57.09
11415;BME280;5763;42.714;23.244;2023-03-31T03:35:41;94501.88;;;11.84;56.65
11415;BME280;5763;42.714;23.244;2023-03-31T03:38:08;94506.72;;;11.89;55.93
11415;BME280;5763;42.714;23.244;2023-03-31T03:40:34;94500.13;;;11.95;54.65
11415;BME280;5763;42.714;23.244;2023-03-31T03:43:01;94499.22;;;11.98;53.32
11415;BME280;5763;42.714;23.244;2023-03-31T03:45:28;94496.44;;;12.07;52.52
11415;BME280;5763;42.714;23.244;2023-03-31T03:47:55;94500.38;;;12.15;51.91
11415;BME280;5763;42.714;23.244;2023-03-31T03:50:23;94489.69;;;12.17;51.56
11415;BME280;5763;42.714;23.244;2023-03-31T03:52:49;94495.16;;;12.26;53.28
11415;BME280;5763;42.714;23.244;2023-03-31T03:55:16;94483.78;;;12.10;55.79
11415;BME280;5763;42.714;23.244;2023-03-31T03:57:43;94464.50;;;11.95;56.79
11415;BME280;5763;42.714;23.244;2023-03-31T04:00:10;94488.84;;;12.02;57.32
11415;BME280;5763;42.714;23.244;2023-03-31T04:02:37;94500.13;;;11.95;58.31
11415;BME280;5763;42.714;23.244;2023-03-31T04:05:04;94507.22;;;11.78;59.44
11415;BME280;5763;42.714;23.244;2023-03-31T04:07:32;94509.84;;;11.73;59.31
11415;BME280;5763;42.714;23.244;2023-03-31T04:09:59;94503.59;;;11.72;59.74
11415;BME280;5763;42.714;23.244;2023-03-31T04:12:26;94512.56;;;11.73;60.11
11415;BME280;5763;42.714;23.244;2023-03-31T04:14:53;94502.84;;;11.63;59.82
11415;BME280;5763;42.714;23.244;2023-03-31T04:17:20;94509.22;;;11.69;59.46
11415;BME280;5763;42.714;23.244;2023-03-31T04:19:57;94506.94;;;11.67;58.68
11415;BME280;5763;42.714;23.244;2023-03-31T04:22:26;94499.34;;;11.62;58.79
11415;BME280;5763;42.714;23.244;2023-03-31T04:24:54;94501.19;;;11.65;59.01
11415;BME280;5763;42.714;23.244;2023-03-31T04:27:23;94505.13;;;11.64;59.55
11415;BME280;5763;42.714;23.244;2023-03-31T04:29:51;94486.41;;;11.54;59.12
11415;BME280;5763;42.714;23.244;2023-03-31T04:32:19;94497.97;;;11.58;59.02
11415;BME280;5763;42.714;23.244;2023-03-31T04:34:46;94494.31;;;11.61;57.69
11415;BME280;5763;42.714;23.244;2023-03-31T04:37:15;94494.91;;;11.74;56.80
11415;BME280;5763;42.714;23.244;2023-03-31T04:39:41;94492.44;;;11.76;56.10
11415;BME280;5763;42.714;23.244;2023-03-31T04:42:12;94489.88;;;11.72;56.37
11415;BME280;5763;42.714;23.244;2023-03-31T04:44:39;94495.34;;;11.72;56.18
11415;BME280;5763;42.714;23.244;2023-03-31T04:47:06;94479.69;;;11.73;55.90
11415;BME280;5763;42.714;23.244;2023-03-31T04:49:33;94482.84;;;11.80;55.90
11415;BME280;5763;42.714;23.244;2023-03-31T04:52:01;94477.66;;;11.82;56.09
11415;BME280;5763;42.714;23.244;2023-03-31T04:54:28;94484.50;;;11.87;54.41
11415;BME280;5763;42.714;23.244;2023-03-31T04:56:54;94474.28;;;11.87;53.86
11415;BME280;5763;42.714;23.244;2023-03-31T04:59:23;94482.16;;;11.94;53.17
11415;BME280;5763;42.714;23.244;2023-03-31T05:01:49;94467.75;;;11.85;52.42
11415;BME280;5763;42.714;23.244;2023-03-31T05:04:16;94471.19;;;11.94;52.37
11415;BME280;5763;42.714;23.244;2023-03-31T05:06:43;94467.09;;;11.99;51.95
11415;BME280;5763;42.714;23.244;2023-03-31T05:09:10;94477.72;;;12.06;52.37
11415;BME280;5763;42.714;23.244;2023-03-31T05:11:36;94487.34;;;12.01;51.78
11415;BME280;5763;42.714;23.244;2023-03-31T05:14:03;94477.88;;;12.02;50.91
11415;BME280;5763;42.714;23.244;2023-03-31T05:16:31;94473.03;;;11.97;50.41
11415;BME280;5763;42.714;23.244;2023-03-31T05:18:58;94472.91;;;11.92;50.09
11415;BME280;5763;42.714;23.244;2023-03-31T05:21:25;94469.47;;;12.06;49.16
11415;BME280;5763;42.714;23.244;2023-03-31T05:23:55;94463.78;;;12.18;48.28
11415;BME280;5763;42.714;23.244;2023-03-31T05:26:22;94449.72;;;12.25;48.04
11415;BME280;5763;42.714;23.244;2023-03-31T05:28:49;94449.38;;;12.32;48.11
11415;BME280;5763;42.714;23.244;2023-03-31T05:31:16;94460.59;;;12.43;47.91
11415;BME280;5763;42.714;23.244;2023-03-31T05:33:45;94443.81;;;12.41;47.66
11415;BME280;5763;42.714;23.244;2023-03-31T05:36:13;94459.41;;;12.35;48.19
11415;BME280;5763;42.714;23.244;2023-03-31T05:38:41;94446.19;;;12.57;48.19
11415;BME280;5763;42.714;23.244;2023-03-31T05:41:09;94433.31;;;12.63;49.27
11415;BME280;5763;42.714;23.244;2023-03-31T05:43:36;94430.50;;;12.72;48.50
11415;BME280;5763;42.714;23.244;2023-03-31T05:46:03;94447.03;;;12.87;47.87
11415;BME280;5763;42.714;23.244;2023-03-31T05:48:31;94442.94;;;13.06;48.15
11415;BME280;5763;42.714;23.244;2023-03-31T05:51:00;94435.34;;;13.01;48.36
11415;BME280;5763;42.714;23.244;2023-03-31T05:53:27;94445.75;;;13.11;48.21
11415;BME280;5763;42.714;23.244;2023-03-31T05:55:57;94448.81;;;13.13;48.42
11415;BME280;5763;42.714;23.244;2023-03-31T05:58:24;94448.81;;;13.13;48.06
11415;BME280;5763;42.714;23.244;2023-03-31T06:00:59;94459.16;;;13.18;48.39
11415;BME280;5763;42.714;23.244;2023-03-31T06:03:26;94453.16;;;13.20;47.54
11415;BME280;5763;42.714;23.244;2023-03-31T06:05:53;94458.28;;;13.27;47.63
11415;BME280;5763;42.714;23.244;2023-03-31T06:08:21;94467.31;;;13.42;46.82
11415;BME280;5763;42.714;23.244;2023-03-31T06:10:48;94464.66;;;13.33;46.31
11415;BME280;5763;42.714;23.244;2023-03-31T06:13:14;94458.69;;;13.34;46.59
11415;BME280;5763;42.714;23.244;2023-03-31T06:15:41;94428.22;;;13.09;46.33
11415;BME280;5763;42.714;23.244;2023-03-31T06:18:08;94458.69;;;13.34;46.43
11415;BME280;5763;42.714;23.244;2023-03-31T06:20:36;94451.56;;;13.28;45.79
11415;BME280;5763;42.714;23.244;2023-03-31T06:23:03;94452.34;;;13.43;45.83
11415;BME280;5763;42.714;23.244;2023-03-31T06:25:31;94455.06;;;13.57;45.88
11415;BME280;5763;42.714;23.244;2023-03-31T06:27:58;94455.28;;;13.54;46.70
11415;BME280;5763;42.714;23.244;2023-03-31T06:30:25;94456.41;;;13.62;46.39
11415;BME280;5763;42.714;23.244;2023-03-31T06:32:51;94455.66;;;13.61;45.93
11415;BME280;5763;42.714;23.244;2023-03-31T06:35:18;94453.38;;;13.60;45.99
11415;BME280;5763;42.714;23.244;2023-03-31T06:37:45;94462.25;;;13.69;45.48
11415;BME280;5763;42.714;23.244;2023-03-31T06:40:12;94457.47;;;13.64;45.42
11415;BME280;5763;42.714;23.244;2023-03-31T06:42:40;94459.81;;;13.71;46.10
11415;BME280;5763;42.714;23.244;2023-03-31T06:45:07;94464.28;;;13.69;45.79
11415;BME280;5763;42.714;23.244;2023-03-31T06:47:34;94471.19;;;13.79;45.47
11415;BME280;5763;42.714;23.244;2023-03-31T06:50:03;94465.88;;;13.75;45.46
11415;BME280;5763;42.714;23.244;2023-03-31T06:52:30;94451.47;;;13.66;45.85
11415;BME280;5763;42.714;23.244;2023-03-31T06:54:56;94472.03;;;13.85;45.63
11415;BME280;5763;42.714;23.244;2023-03-31T06:57:25;94457.16;;;13.91;45.71
11415;BME280;5763;42.714;23.244;2023-03-31T06:59:53;94447.75;;;13.83;45.80
11415;BME280;5763;42.714;23.244;2023-03-31T07:02:19;94448.41;;;13.78;46.25
11415;BME280;5763;42.714;23.244;2023-03-31T07:04:46;94437.41;;;13.78;46.01
11415;BME280;5763;42.714;23.244;2023-03-31T07:07:13;94418.66;;;13.62;45.68
11415;BME280;5763;42.714;23.244;2023-03-31T07:09:40;94427.75;;;13.83;46.00
11415;BME280;5763;42.714;23.244;2023-03-31T07:12:06;94413.88;;;13.92;45.78
11415;BME280;5763;42.714;23.244;2023-03-31T07:14:35;94398.28;;;14.03;45.80
11415;BME280;5763;42.714;23.244;2023-03-31T07:17:03;94398.44;;;14.14;46.66
11415;BME280;5763;42.714;23.244;2023-03-31T07:19:30;94399.38;;;14.26;46.20
11415;BME280;5763;42.714;23.244;2023-03-31T07:21:57;94391.63;;;14.44;45.73
11415;BME280;5763;42.714;23.244;2023-03-31T07:24:23;94392.94;;;14.49;45.20
11415;BME280;5763;42.714;23.244;2023-03-31T07:26:51;94395.13;;;14.45;46.47
11415;BME280;5763;42.714;23.244;2023-03-31T07:29:17;94396.00;;;14.56;46.42
11415;BME280;5763;42.714;23.244;2023-03-31T07:31:46;94395.63;;;14.63;46.08
11415;BME280;5763;42.714;23.244;2023-03-31T07:34:14;94404.50;;;14.73;46.16
11415;BME280;5763;42.714;23.244;2023-03-31T07:36:41;94409.44;;;14.69;45.28
11415;BME280;5763;42.714;23.244;2023-03-31T07:39:08;94394.25;;;14.73;45.34
11415;BME280;5763;42.714;23.244;2023-03-31T07:41:35;94398.50;;;14.74;44.87
11415;BME280;5763;42.714;23.244;2023-03-31T07:44:02;94404.69;;;14.69;44.80
11415;BME280;5763;42.714;23.244;2023-03-31T07:46:29;94392.72;;;14.72;44.56
11415;BME280;5763;42.714;23.244;2023-03-31T07:48:56;94395.47;;;14.92;44.13
11415;BME280;5763;42.714;23.244;2023-03-31T07:51:25;94410.56;;;15.02;44.04
11415;BME280;5763;42.714;23.244;2023-03-31T07:53:52;94389.44;;;14.94;43.83
11415;BME280;5763;42.714;23.244;2023-03-31T07:56:21;94417.78;;;14.94;43.70
11415;BME280;5763;42.714;23.244;2023-03-31T07:58:48;94420.38;;;15.03;43.54
11415;BME280;5763;42.714;23.244;2023-03-31T08:01:20;94396.38;;;15.09;43.65
11415;BME280;5763;42.714;23.244;2023-03-31T08:03:50;94400.75;;;15.21;43.21
11415;BME280;5763;42.714;23.244;2023-03-31T08:06:19;94394.53;;;15.26;43.12
11415;BME280;5763;42.714;23.244;2023-03-31T08:08:48;94400.22;;;15.17;42.78
11415;BME280;5763;42.714;23.244;2023-03-31T08:11:15;94393.03;;;15.25;42.47
11415;BME280;5763;42.714;23.244;2023-03-31T08:13:42;94391.25;;;15.22;42.34
11415;BME280;5763;42.714;23.244;2023-03-31T08:16:09;94391.03;;;15.26;42.51
11415;BME280;5763;42.714;23.244;2023-03-31T08:18:36;94385.69;;;15.17;42.00
11415;BME280;5763;42.714;23.244;2023-03-31T08:21:03;94391.84;;;15.06;42.88
11415;BME280;5763;42.714;23.244;2023-03-31T08:23:30;94378.78;;;15.27;42.75
11415;BME280;5763;42.714;23.244;2023-03-31T08:26:08;94380.31;;;15.59;42.13
11415;BME280;5763;42.714;23.244;2023-03-31T08:28:35;94367.53;;;15.92;41.80
11415;BME280;5763;42.714;23.244;2023-03-31T08:31:03;94372.34;;;16.39;41.21
11415;BME280;5763;42.714;23.244;2023-03-31T08:33:30;94379.75;;;16.59;39.93
11415;BME280;5763;42.714;23.244;2023-03-31T08:36:01;94362.94;;;16.68;39.59
11415;BME280;5763;42.714;23.244;2023-03-31T08:38:29;94364.47;;;16.74;38.83
11415;BME280;5763;42.714;23.244;2023-03-31T08:41:00;94369.03;;;16.94;39.20
11415;BME280;5763;42.714;23.244;2023-03-31T08:43:32;94370.59;;;17.06;38.25
11415;BME280;5763;42.714;23.244;2023-03-31T08:46:01;94361.78;;;17.07;38.43
11415;BME280;5763;42.714;23.244;2023-03-31T08:48:31;94373.81;;;16.83;38.01
11415;BME280;5763;42.714;23.244;2023-03-31T08:51:05;94356.34;;;16.54;37.86
11415;BME280;5763;42.714;23.244;2023-03-31T08:53:36;94357.50;;;16.37;38.33
11415;BME280;5763;42.714;23.244;2023-03-31T08:56:07;94349.69;;;16.35;38.41
11415;BME280;5763;42.714;23.244;2023-03-31T08:58:42;94340.50;;;16.49;38.95
11415;BME280;5763;42.714;23.244;2023-03-31T09:01:20;94348.56;;;16.53;38.53
11415;BME280;5763;42.714;23.244;2023-03-31T09:04:05;94348.28;;;16.45;38.18
11415;BME280;5763;42.714;23.244;2023-03-31T09:06:36;94342.81;;;16.57;38.37
11415;BME280;5763;42.714;23.244;2023-03-31T09:09:09;94331.59;;;16.82;37.88
11415;BME280;5763;42.714;23.244;2023-03-31T09:11:41;94335.88;;;16.88;37.58
11415;BME280;5763;42.714;23.244;2023-03-31T09:14:25;94337.09;;;16.76;37.22
11415;BME280;5763;42.714;23.244;2023-03-31T09:16:58;94342.34;;;16.69;37.54
11415;BME280;5763;42.714;23.244;2023-03-31T09:19:34;94338.53;;;16.55;37.43
11415;BME280;5763;42.714;23.244;2023-03-31T09:22:03;94337.75;;;16.44;37.76
11415;BME280;5763;42.714;23.244;2023-03-31T09:24:34;94346.03;;;16.49;37.63
11415;BME280;5763;42.714;23.244;2023-03-31T09:27:04;94332.94;;;16.44;37.71
11415;BME280;5763;42.714;23.244;2023-03-31T09:29:40;94326.44;;;16.48;37.59
11415;BME280;5763;42.714;23.244;2023-03-31T09:32:13;94345.50;;;16.45;37.91
11415;BME280;5763;42.714;23.244;2023-03-31T09:34:40;94342.25;;;16.42;38.36
11415;BME280;5763;42.714;23.244;2023-03-31T09:37:08;94334.53;;;16.57;38.05
11415;BME280;5763;42.714;23.244;2023-03-31T09:39:36;94329.03;;;16.67;38.04
11415;BME280;5763;42.714;23.244;2023-03-31T09:42:03;94330.50;;;16.58;38.23
11415;BME280;5763;42.714;23.244;2023-03-31T09:44:37;94316.63;;;16.41;38.44
11415;BME280;5763;42.714;23.244;2023-03-31T09:47:05;94320.69;;;16.51;38.20
11415;BME280;5763;42.714;23.244;2023-03-31T09:49:34;94311.16;;;16.63;37.91
11415;BME280;5763;42.714;23.244;2023-03-31T09:52:05;94323.84;;;17.08;37.26
11415;BME280;5763;42.714;23.244;2023-03-31T09:54:36;94305.56;;;17.44;36.89
11415;BME280;5763;42.714;23.244;2023-03-31T09:57:12;94295.25;;;17.61;36.21
11415;BME280;5763;42.714;23.244;2023-03-31T09:59:41;94299.72;;;17.80;35.70
11415;BME280;5763;42.714;23.244;2023-03-31T10:02:32;94308.03;;;17.63;36.00
11415;BME280;5763;42.714;23.244;2023-03-31T10:05:00;94301.28;;;17.59;35.99
11415;BME280;5763;42.714;23.244;2023-03-31T10:07:27;94300.50;;;17.36;36.68
11415;BME280;5763;42.714;23.244;2023-03-31T10:09:54;94288.19;;;17.21;37.00
11415;BME280;5763;42.714;23.244;2023-03-31T10:12:24;94293.19;;;17.17;37.05
11415;BME280;5763;42.714;23.244;2023-03-31T10:15:00;94281.38;;;17.16;37.26
11415;BME280;5763;42.714;23.244;2023-03-31T10:17:28;94281.38;;;17.11;38.03
11415;BME280;5763;42.714;23.244;2023-03-31T10:19:56;94279.88;;;17.15;38.91
11415;BME280;5763;42.714;23.244;2023-03-31T10:22:27;94270.81;;;17.09;39.30
11415;BME280;5763;42.714;23.244;2023-03-31T10:25:08;94272.06;;;17.08;38.61
11415;BME280;5763;42.714;23.244;2023-03-31T10:27:38;94270.81;;;16.98;39.08
11415;BME280;5763;42.714;23.244;2023-03-31T10:30:11;94276.84;;;17.02;39.12
11415;BME280;5763;42.714;23.244;2023-03-31T10:32:39;94268.31;;;17.06;39.84
11415;BME280;5763;42.714;23.244;2023-03-31T10:35:18;94260.00;;;16.95;39.56
11415;BME280;5763;42.714;23.244;2023-03-31T10:37:48;94253.22;;;17.01;39.93
11415;BME280;5763;42.714;23.244;2023-03-31T10:40:19;94254.47;;;17.00;40.25
11415;BME280;5763;42.714;23.244;2023-03-31T10:42:49;94249.97;;;17.08;40.23
11415;BME280;5763;42.714;23.244;2023-03-31T10:45:27;94249.22;;;17.02;40.53
11415;BME280;5763;42.714;23.244;2023-03-31T10:47:56;94251.97;;;17.24;39.63
11415;BME280;5763;42.714;23.244;2023-03-31T10:50:26;94239.66;;;17.42;38.84
11415;BME280;5763;42.714;23.244;2023-03-31T10:53:00;94242.41;;;17.70;37.70
11415;BME280;5763;42.714;23.244;2023-03-31T10:55:33;94243.38;;;17.77;37.75
11415;BME280;5763;42.714;23.244;2023-03-31T10:58:06;94243.38;;;17.83;37.13
11415;BME280;5763;42.714;23.244;2023-03-31T11:00:45;94235.53;;;17.92;36.33
11415;BME280;5763;42.714;23.244;2023-03-31T11:03:29;94234.44;;;18.17;36.54
11415;BME280;5763;42.714;23.244;2023-03-31T11:06:06;94228.13;;;18.23;35.79
11415;BME280;5763;42.714;23.244;2023-03-31T11:08:43;94228.63;;;18.27;36.84
11415;BME280;5763;42.714;23.244;2023-03-31T11:11:24;94218.59;;;18.18;36.86
11415;BME280;5763;42.714;23.244;2023-03-31T11:13:59;94216.38;;;18.00;37.33
11415;BME280;5763;42.714;23.244;2023-03-31T11:16:33;94216.66;;;17.91;37.17
11415;BME280;5763;42.714;23.244;2023-03-31T11:19:18;94212.16;;;17.83;37.41
11415;BME280;5763;42.714;23.244;2023-03-31T11:21:56;94212.66;;;17.81;37.94
11415;BME280;5763;42.714;23.244;2023-03-31T11:24:39;94215.19;;;17.73;37.77
11415;BME280;5763;42.714;23.244;2023-03-31T11:27:24;94201.91;;;17.56;37.64
11415;BME280;5763;42.714;23.244;2023-03-31T11:29:57;94202.19;;;17.47;38.02
11415;BME280;5763;42.714;23.244;2023-03-31T11:32:44;94201.66;;;17.59;37.67
11415;BME280;5763;42.714;23.244;2023-03-31T11:35:21;94203.41;;;17.57;37.35
11415;BME280;5763;42.714;23.244;2023-03-31T11:38:03;94193.03;;;17.79;37.29
11415;BME280;5763;42.714;23.244;2023-03-31T11:40:47;94186.97;;;17.86;37.58
11415;BME280;5763;42.714;23.244;2023-03-31T11:43:23;94186.97;;;17.92;37.86
11415;BME280;5763;42.714;23.244;2023-03-31T11:45:58;94189.28;;;17.82;37.63
11415;BME280;5763;42.714;23.244;2023-03-31T11:48:34;94182.66;;;18.02;37.52
11415;BME280;5763;42.714;23.244;2023-03-31T11:51:08;94176.72;;;18.27;37.74
11415;BME280;5763;42.714;23.244;2023-03-31T11:53:37;94186.53;;;18.39;36.83
11415;BME280;5763;42.714;23.244;2023-03-31T11:56:07;94166.41;;;18.33;36.57
11415;BME280;5763;42.714;23.244;2023-03-31T11:58:37;94156.34;;;18.24;36.33
11415;BME280;5763;42.714;23.244;2023-03-31T12:01:10;94150.28;;;18.32;37.13
11415;BME280;5763;42.714;23.244;2023-03-31T12:03:47;94155.38;;;18.63;36.90
11415;BME280;5763;42.714;23.244;2023-03-31T12:06:20;94161.63;;;19.04;35.93
11415;BME280;5763;42.714;23.244;2023-03-31T12:08:53;94139.78;;;19.48;35.27
11415;BME280;5763;42.714;23.244;2023-03-31T12:11:28;94138.78;;;19.70;34.49
11415;BME280;5763;42.714;23.244;2023-03-31T12:14:08;94141.97;;;20.22;33.75
11415;BME280;5763;42.714;23.244;2023-03-31T12:16:40;94133.59;;;20.59;33.21
11415;BME280;5763;42.714;23.244;2023-03-31T12:19:16;94141.34;;;20.47;33.26
11415;BME280;5763;42.714;23.244;2023-03-31T12:21:49;94130.44;;;20.12;33.51
11415;BME280;5763;42.714;23.244;2023-03-31T12:24:16;94121.16;;;19.67;33.61
11415;BME280;5763;42.714;23.244;2023-03-31T12:26:51;94124.56;;;19.55;33.90
11415;BME280;5763;42.714;23.244;2023-03-31T12:29:27;94124.13;;;19.51;34.84
11415;BME280;5763;42.714;23.244;2023-03-31T12:31:56;94123.47;;;19.39;34.54
11415;BME280;5763;42.714;23.244;2023-03-31T12:34:27;94120.34;;;19.48;34.42
11415;BME280;5763;42.714;23.244;2023-03-31T12:37:07;94115.38;;;20.08;33.97
11415;BME280;5763;42.714;23.244;2023-03-31T12:39:51;94093.72;;;20.88;33.11
11415;BME280;5763;42.714;23.244;2023-03-31T12:42:48;94105.41;;;21.57;32.06
11415;BME280;5763;42.714;23.244;2023-03-31T12:45:26;94097.81;;;21.83;30.63
11415;BME280;5763;42.714;23.244;2023-03-31T12:48:08;94095.75;;;21.97;30.20
11415;BME280;5763;42.714;23.244;2023-03-31T12:50:55;94083.56;;;22.00;30.57
11415;BME280;5763;42.714;23.244;2023-03-31T12:53:31;94047.56;;;21.37;30.96
11415;BME280;5763;42.714;23.244;2023-03-31T12:56:00;94080.03;;;21.47;31.04
11415;BME280;5763;42.714;23.244;2023-03-31T12:58:51;94036.97;;;21.22;31.14
11415;BME280;5763;42.714;23.244;2023-03-31T13:01:18;94055.81;;;21.55;31.24
11415;BME280;5763;42.714;23.244;2023-03-31T13:03:48;94060.94;;;21.64;31.15
11415;BME280;5763;42.714;23.244;2023-03-31T13:09:44;94052.63;;;22.57;29.77
11415;BME280;5763;42.714;23.244;2023-03-31T13:12:16;94053.59;;;22.80;28.13
11415;BME280;5763;42.714;23.244;2023-03-31T13:14:46;94032.41;;;23.05;28.84
11415;BME280;5763;42.714;23.244;2023-03-31T13:17:25;94022.09;;;23.21;28.32
11415;BME280;5763;42.714;23.244;2023-03-31T13:19:53;94026.75;;;22.98;28.48
11415;BME280;5763;42.714;23.244;2023-03-31T13:22:29;94013.44;;;22.63;27.64
11415;BME280;5763;42.714;23.244;2023-03-31T13:28:07;93988.31;;;22.09;29.41
11415;BME280;5763;42.714;23.244;2023-03-31T13:30:46;93996.22;;;22.18;29.89
11415;BME280;5763;42.714;23.244;2023-03-31T13:33:14;93993.47;;;22.38;29.38
11415;BME280;5763;42.714;23.244;2023-03-31T13:35:46;93986.25;;;22.56;29.17
11415;BME280;5763;42.714;23.244;2023-03-31T13:38:22;93977.06;;;22.14;29.75